Menlo, Kansas
Current Conditions -  °F | °C
As of 1:15 PM on Sunday 21 Dec 2014 (Local Time) from KCBK Reporting Station
Clear Clear  
Wind Chill: 27°   Ceiling: Unl
Heat Index: 36°   Visibility: 10mi
Dew Point: 34°   Wind: 14mph
Humidity: 93%   Direction: 190°S
Pressure: 29.64"   Gusts: NA
Location:  39.3723°N, 100.776°W
Report Text: KCBK 211915Z AUTO 19012KT 10SM CLR 02/01 A2964 RMK AO2
Loading
Personal Weather Stations






























Interactive Weather Map New forecast layout! Learn more

10-Day Weather Forecast

Advertisements
Track Severe Weather on mobile